sensor_id;sensor_type;location;lat;lon;timestamp;P1;durP1;ratioP1;P2;durP2;ratioP2
7977;SDS011;4034;48.004;10.902;2022-10-16T00:01:05;3.33;;;2.13;;
7977;SDS011;4034;48.004;10.902;2022-10-16T00:03:31;2.80;;;1.70;;
7977;SDS011;4034;48.004;10.902;2022-10-16T00:05:58;4.60;;;1.50;;
7977;SDS011;4034;48.004;10.902;2022-10-16T00:08:25;3.60;;;1.50;;
7977;SDS011;4034;48.004;10.902;2022-10-16T00:10:51;3.10;;;1.70;;
7977;SDS011;4034;48.004;10.902;2022-10-16T00:13:17;1.33;;;1.33;;
7977;SDS011;4034;48.004;10.902;2022-10-16T00:15:44;1.80;;;1.70;;
7977;SDS011;4034;48.004;10.902;2022-10-16T00:18:11;2.77;;;1.63;;
7977;SDS011;4034;48.004;10.902;2022-10-16T00:20:39;3.13;;;2.17;;
7977;SDS011;4034;48.004;10.902;2022-10-16T00:23:05;2.40;;;1.40;;
7977;SDS011;4034;48.004;10.902;2022-10-16T00:25:31;2.27;;;1.67;;
7977;SDS011;4034;48.004;10.902;2022-10-16T00:28:01;2.03;;;1.93;;
7977;SDS011;4034;48.004;10.902;2022-10-16T00:30:27;1.80;;;1.70;;
7977;SDS011;4034;48.004;10.902;2022-10-16T00:32:53;3.07;;;2.00;;
7977;SDS011;4034;48.004;10.902;2022-10-16T00:35:19;1.70;;;1.60;;
7977;SDS011;4034;48.004;10.902;2022-10-16T00:37:45;4.77;;;2.00;;
7977;SDS011;4034;48.004;10.902;2022-10-16T00:40:11;2.70;;;1.47;;
7977;SDS011;4034;48.004;10.902;2022-10-16T00:42:37;1.30;;;1.30;;
7977;SDS011;4034;48.004;10.902;2022-10-16T00:45:04;2.03;;;1.83;;
7977;SDS011;4034;48.004;10.902;2022-10-16T00:50:05;3.63;;;1.90;;
7977;SDS011;4034;48.004;10.902;2022-10-16T00:52:32;3.50;;;1.80;;
7977;SDS011;4034;48.004;10.902;2022-10-16T00:54:59;2.30;;;2.10;;
7977;SDS011;4034;48.004;10.902;2022-10-16T00:57:25;2.40;;;1.77;;
7977;SDS011;4034;48.004;10.902;2022-10-16T00:59:51;4.97;;;1.90;;
7977;SDS011;4034;48.004;10.902;2022-10-16T01:02:17;2.07;;;1.97;;
7977;SDS011;4034;48.004;10.902;2022-10-16T01:04:45;3.40;;;1.87;;
7977;SDS011;4034;48.004;10.902;2022-10-16T01:07:36;4.27;;;1.90;;
7977;SDS011;4034;48.004;10.902;2022-10-16T01:10:17;1.90;;;1.80;;
7977;SDS011;4034;48.004;10.902;2022-10-16T01:15:29;1.77;;;1.67;;
7977;SDS011;4034;48.004;10.902;2022-10-16T01:20:32;1.70;;;1.60;;
7977;SDS011;4034;48.004;10.902;2022-10-16T01:28:14;1.70;;;1.57;;
7977;SDS011;4034;48.004;10.902;2022-10-16T01:30:42;2.40;;;1.60;;
7977;SDS011;4034;48.004;10.902;2022-10-16T01:33:19;1.40;;;1.40;;
7977;SDS011;4034;48.004;10.902;2022-10-16T01:35:47;1.87;;;1.53;;
7977;SDS011;4034;48.004;10.902;2022-10-16T01:40:51;1.67;;;1.60;;
7977;SDS011;4034;48.004;10.902;2022-10-16T01:43:19;1.53;;;1.53;;
7977;SDS011;4034;48.004;10.902;2022-10-16T01:45:46;2.03;;;1.20;;
7977;SDS011;4034;48.004;10.902;2022-10-16T01:48:14;1.47;;;1.40;;
7977;SDS011;4034;48.004;10.902;2022-10-16T01:50:41;1.50;;;1.40;;
7977;SDS011;4034;48.004;10.902;2022-10-16T01:55:36;1.80;;;1.70;;
7977;SDS011;4034;48.004;10.902;2022-10-16T02:02:54;1.37;;;1.37;;
7977;SDS011;4034;48.004;10.902;2022-10-16T02:05:26;2.20;;;1.37;;
7977;SDS011;4034;48.004;10.902;2022-10-16T02:07:52;6.03;;;1.77;;
7977;SDS011;4034;48.004;10.902;2022-10-16T02:10:19;1.53;;;1.53;;
7977;SDS011;4034;48.004;10.902;2022-10-16T02:12:47;1.37;;;1.27;;
7977;SDS011;4034;48.004;10.902;2022-10-16T02:15:14;1.87;;;1.77;;
7977;SDS011;4034;48.004;10.902;2022-10-16T02:17:40;1.80;;;1.40;;
7977;SDS011;4034;48.004;10.902;2022-10-16T02:20:06;2.33;;;2.13;;
7977;SDS011;4034;48.004;10.902;2022-10-16T02:22:38;1.47;;;1.47;;
7977;SDS011;4034;48.004;10.902;2022-10-16T02:25:47;1.33;;;1.33;;
7977;SDS011;4034;48.004;10.902;2022-10-16T02:28:03;1.40;;;1.40;;
7977;SDS011;4034;48.004;10.902;2022-10-16T02:33:05;1.23;;;1.23;;
7977;SDS011;4034;48.004;10.902;2022-10-16T02:35:32;4.93;;;2.73;;
7977;SDS011;4034;48.004;10.902;2022-10-16T02:37:59;3.50;;;1.60;;
7977;SDS011;4034;48.004;10.902;2022-10-16T02:40:26;1.50;;;1.50;;
7977;SDS011;4034;48.004;10.902;2022-10-16T02:42:52;1.50;;;1.50;;
7977;SDS011;4034;48.004;10.902;2022-10-16T02:45:19;5.00;;;1.40;;
7977;SDS011;4034;48.004;10.902;2022-10-16T02:47:45;4.47;;;1.60;;
7977;SDS011;4034;48.004;10.902;2022-10-16T02:50:11;1.33;;;1.30;;
7977;SDS011;4034;48.004;10.902;2022-10-16T02:52:37;1.20;;;1.20;;
7977;SDS011;4034;48.004;10.902;2022-10-16T02:55:03;1.30;;;1.30;;
7977;SDS011;4034;48.004;10.902;2022-10-16T02:57:29;1.47;;;1.37;;
7977;SDS011;4034;48.004;10.902;2022-10-16T02:59:56;1.50;;;1.50;;
7977;SDS011;4034;48.004;10.902;2022-10-16T03:02:22;2.50;;;1.40;;
7977;SDS011;4034;48.004;10.902;2022-10-16T03:04:48;1.30;;;1.30;;
7977;SDS011;4034;48.004;10.902;2022-10-16T03:07:14;3.47;;;1.43;;
7977;SDS011;4034;48.004;10.902;2022-10-16T03:09:41;1.40;;;1.40;;
7977;SDS011;4034;48.004;10.902;2022-10-16T03:12:07;3.70;;;1.60;;
7977;SDS011;4034;48.004;10.902;2022-10-16T03:14:33;3.97;;;1.53;;
7977;SDS011;4034;48.004;10.902;2022-10-16T03:16:59;2.20;;;1.33;;
7977;SDS011;4034;48.004;10.902;2022-10-16T03:19:25;1.20;;;1.20;;
7977;SDS011;4034;48.004;10.902;2022-10-16T03:21:51;1.17;;;1.17;;
7977;SDS011;4034;48.004;10.902;2022-10-16T03:24:17;2.90;;;1.60;;
7977;SDS011;4034;48.004;10.902;2022-10-16T03:26:43;4.70;;;2.20;;
7977;SDS011;4034;48.004;10.902;2022-10-16T03:29:09;1.47;;;1.40;;
7977;SDS011;4034;48.004;10.902;2022-10-16T03:31:35;1.33;;;1.33;;
7977;SDS011;4034;48.004;10.902;2022-10-16T03:34:01;2.90;;;1.33;;
7977;SDS011;4034;48.004;10.902;2022-10-16T03:36:27;1.40;;;1.40;;
7977;SDS011;4034;48.004;10.902;2022-10-16T03:38:53;1.40;;;1.40;;
7977;SDS011;4034;48.004;10.902;2022-10-16T03:41:19;2.13;;;1.67;;
7977;SDS011;4034;48.004;10.902;2022-10-16T03:43:45;1.47;;;1.40;;
7977;SDS011;4034;48.004;10.902;2022-10-16T03:46:11;1.40;;;1.33;;
7977;SDS011;4034;48.004;10.902;2022-10-16T03:48:37;1.90;;;1.30;;
7977;SDS011;4034;48.004;10.902;2022-10-16T03:51:04;2.57;;;1.37;;
7977;SDS011;4034;48.004;10.902;2022-10-16T03:53:30;1.27;;;1.27;;
7977;SDS011;4034;48.004;10.902;2022-10-16T03:55:56;1.33;;;1.33;;
7977;SDS011;4034;48.004;10.902;2022-10-16T03:58:23;1.30;;;1.30;;
7977;SDS011;4034;48.004;10.902;2022-10-16T04:00:49;1.23;;;1.23;;
7977;SDS011;4034;48.004;10.902;2022-10-16T04:03:15;1.20;;;1.20;;
7977;SDS011;4034;48.004;10.902;2022-10-16T04:05:42;1.27;;;1.27;;
7977;SDS011;4034;48.004;10.902;2022-10-16T04:08:08;1.40;;;1.40;;
7977;SDS011;4034;48.004;10.902;2022-10-16T04:10:34;1.37;;;1.37;;
7977;SDS011;4034;48.004;10.902;2022-10-16T04:13:00;1.30;;;1.30;;
7977;SDS011;4034;48.004;10.902;2022-10-16T04:15:26;1.20;;;1.20;;
7977;SDS011;4034;48.004;10.902;2022-10-16T04:17:52;1.57;;;1.50;;
7977;SDS011;4034;48.004;10.902;2022-10-16T04:20:18;1.50;;;1.50;;
7977;SDS011;4034;48.004;10.902;2022-10-16T04:22:44;1.30;;;1.20;;
7977;SDS011;4034;48.004;10.902;2022-10-16T04:25:10;2.67;;;1.60;;
7977;SDS011;4034;48.004;10.902;2022-10-16T04:27:36;1.83;;;1.40;;
7977;SDS011;4034;48.004;10.902;2022-10-16T04:30:03;3.63;;;3.43;;
7977;SDS011;4034;48.004;10.902;2022-10-16T04:32:29;2.50;;;1.60;;
7977;SDS011;4034;48.004;10.902;2022-10-16T04:34:55;2.70;;;1.50;;
7977;SDS011;4034;48.004;10.902;2022-10-16T04:37:25;1.60;;;1.60;;
7977;SDS011;4034;48.004;10.902;2022-10-16T04:39:51;1.30;;;1.30;;
7977;SDS011;4034;48.004;10.902;2022-10-16T04:42:17;1.70;;;1.70;;
7977;SDS011;4034;48.004;10.902;2022-10-16T04:44:43;1.37;;;1.37;;
7977;SDS011;4034;48.004;10.902;2022-10-16T04:47:09;1.77;;;1.50;;
7977;SDS011;4034;48.004;10.902;2022-10-16T04:49:35;1.50;;;1.40;;
7977;SDS011;4034;48.004;10.902;2022-10-16T04:52:01;2.97;;;1.30;;
7977;SDS011;4034;48.004;10.902;2022-10-16T04:54:27;2.50;;;1.40;;
7977;SDS011;4034;48.004;10.902;2022-10-16T04:56:53;1.40;;;1.40;;
7977;SDS011;4034;48.004;10.902;2022-10-16T04:59:20;1.40;;;1.30;;
7977;SDS011;4034;48.004;10.902;2022-10-16T05:01:47;2.20;;;1.50;;
7977;SDS011;4034;48.004;10.902;2022-10-16T05:04:13;1.90;;;1.50;;
7977;SDS011;4034;48.004;10.902;2022-10-16T05:06:42;2.33;;;1.33;;
7977;SDS011;4034;48.004;10.902;2022-10-16T05:09:08;2.63;;;1.87;;
7977;SDS011;4034;48.004;10.902;2022-10-16T05:11:35;1.33;;;1.33;;
7977;SDS011;4034;48.004;10.902;2022-10-16T05:14:01;2.10;;;1.90;;
7977;SDS011;4034;48.004;10.902;2022-10-16T05:16:27;1.47;;;1.43;;
7977;SDS011;4034;48.004;10.902;2022-10-16T05:18:53;1.23;;;1.23;;
7977;SDS011;4034;48.004;10.902;2022-10-16T05:21:20;1.80;;;1.47;;
7977;SDS011;4034;48.004;10.902;2022-10-16T05:23:46;1.60;;;1.60;;
7977;SDS011;4034;48.004;10.902;2022-10-16T05:26:12;1.87;;;1.40;;
7977;SDS011;4034;48.004;10.902;2022-10-16T05:28:38;1.53;;;1.53;;
7977;SDS011;4034;48.004;10.902;2022-10-16T05:31:06;3.23;;;1.57;;
7977;SDS011;4034;48.004;10.902;2022-10-16T05:33:33;1.47;;;1.40;;
7977;SDS011;4034;48.004;10.902;2022-10-16T05:36:06;2.50;;;1.70;;
7977;SDS011;4034;48.004;10.902;2022-10-16T05:38:32;1.20;;;1.20;;
7977;SDS011;4034;48.004;10.902;2022-10-16T05:40:59;1.37;;;1.37;;
7977;SDS011;4034;48.004;10.902;2022-10-16T05:43:26;2.40;;;1.50;;
7977;SDS011;4034;48.004;10.902;2022-10-16T05:45:56;1.87;;;1.60;;
7977;SDS011;4034;48.004;10.902;2022-10-16T05:48:22;5.67;;;2.57;;
7977;SDS011;4034;48.004;10.902;2022-10-16T05:50:48;1.67;;;1.57;;
7977;SDS011;4034;48.004;10.902;2022-10-16T05:53:14;1.40;;;1.40;;
7977;SDS011;4034;48.004;10.902;2022-10-16T05:55:41;1.30;;;1.30;;
7977;SDS011;4034;48.004;10.902;2022-10-16T05:58:07;1.10;;;1.10;;
7977;SDS011;4034;48.004;10.902;2022-10-16T06:00:33;1.20;;;1.20;;
7977;SDS011;4034;48.004;10.902;2022-10-16T06:02:59;1.20;;;1.20;;
7977;SDS011;4034;48.004;10.902;2022-10-16T06:05:25;1.50;;;1.40;;
7977;SDS011;4034;48.004;10.902;2022-10-16T06:07:51;2.40;;;1.47;;
7977;SDS011;4034;48.004;10.902;2022-10-16T06:10:17;2.33;;;1.60;;
7977;SDS011;4034;48.004;10.902;2022-10-16T06:12:43;1.77;;;1.40;;
7977;SDS011;4034;48.004;10.902;2022-10-16T06:15:09;1.40;;;1.40;;
7977;SDS011;4034;48.004;10.902;2022-10-16T06:17:35;2.00;;;1.27;;
7977;SDS011;4034;48.004;10.902;2022-10-16T06:20:01;1.23;;;1.23;;
7977;SDS011;4034;48.004;10.902;2022-10-16T06:22:27;2.30;;;1.20;;
7977;SDS011;4034;48.004;10.902;2022-10-16T06:24:53;1.87;;;1.43;;
7977;SDS011;4034;48.004;10.902;2022-10-16T06:27:19;3.87;;;2.23;;
7977;SDS011;4034;48.004;10.902;2022-10-16T06:29:45;1.40;;;1.40;;
7977;SDS011;4034;48.004;10.902;2022-10-16T06:32:11;1.73;;;1.63;;
7977;SDS011;4034;48.004;10.902;2022-10-16T06:34:37;1.47;;;1.40;;
7977;SDS011;4034;48.004;10.902;2022-10-16T06:37:05;2.23;;;1.27;;
7977;SDS011;4034;48.004;10.902;2022-10-16T06:39:31;1.20;;;1.20;;
7977;SDS011;4034;48.004;10.902;2022-10-16T06:41:57;1.40;;;1.40;;
7977;SDS011;4034;48.004;10.902;2022-10-16T06:44:23;1.50;;;1.50;;
7977;SDS011;4034;48.004;10.902;2022-10-16T06:46:49;1.40;;;1.40;;
7977;SDS011;4034;48.004;10.902;2022-10-16T06:49:15;2.67;;;1.30;;
7977;SDS011;4034;48.004;10.902;2022-10-16T06:51:46;4.00;;;1.20;;
7977;SDS011;4034;48.004;10.902;2022-10-16T06:54:12;1.53;;;1.30;;
7977;SDS011;4034;48.004;10.902;2022-10-16T06:56:38;3.33;;;1.20;;
7977;SDS011;4034;48.004;10.902;2022-10-16T06:59:04;1.30;;;1.30;;
7977;SDS011;4034;48.004;10.902;2022-10-16T07:01:30;1.30;;;1.30;;
7977;SDS011;4034;48.004;10.902;2022-10-16T07:03:56;1.33;;;1.23;;
7977;SDS011;4034;48.004;10.902;2022-10-16T07:06:23;1.30;;;1.30;;
7977;SDS011;4034;48.004;10.902;2022-10-16T07:08:49;1.93;;;1.30;;
7977;SDS011;4034;48.004;10.902;2022-10-16T07:11:17;2.97;;;1.50;;
7977;SDS011;4034;48.004;10.902;2022-10-16T07:13:43;1.20;;;1.20;;
7977;SDS011;4034;48.004;10.902;2022-10-16T07:16:12;11.35;;;2.35;;
7977;SDS011;4034;48.004;10.902;2022-10-16T07:18:38;1.90;;;1.50;;
7977;SDS011;4034;48.004;10.902;2022-10-16T07:23:31;1.00;;;1.00;;
7977;SDS011;4034;48.004;10.902;2022-10-16T07:57:36;3.03;;;1.60;;
7977;SDS011;4034;48.004;10.902;2022-10-16T08:21:59;1.10;;;1.10;;
7977;SDS011;4034;48.004;10.902;2022-10-16T08:46:37;0.80;;;0.80;;
7977;SDS011;4034;48.004;10.902;2022-10-16T08:49:05;1.23;;;1.00;;
7977;SDS011;4034;48.004;10.902;2022-10-16T08:51:37;1.20;;;1.20;;
7977;SDS011;4034;48.004;10.902;2022-10-16T08:56:45;2.75;;;1.20;;
7977;SDS011;4034;48.004;10.902;2022-10-16T08:59:11;0.70;;;0.70;;
7977;SDS011;4034;48.004;10.902;2022-10-16T09:01:38;3.83;;;0.80;;
7977;SDS011;4034;48.004;10.902;2022-10-16T09:04:30;1.23;;;1.00;;
7977;SDS011;4034;48.004;10.902;2022-10-16T09:07:05;1.13;;;0.80;;
7977;SDS011;4034;48.004;10.902;2022-10-16T09:14:58;0.83;;;0.83;;
7977;SDS011;4034;48.004;10.902;2022-10-16T09:22:35;0.80;;;0.80;;
7977;SDS011;4034;48.004;10.902;2022-10-16T09:25:01;0.83;;;0.80;;
7977;SDS011;4034;48.004;10.902;2022-10-16T09:27:35;0.80;;;0.80;;
7977;SDS011;4034;48.004;10.902;2022-10-16T09:30:09;0.80;;;0.80;;
7977;SDS011;4034;48.004;10.902;2022-10-16T09:32:36;2.80;;;0.80;;
7977;SDS011;4034;48.004;10.902;2022-10-16T09:35:03;0.60;;;0.60;;
7977;SDS011;4034;48.004;10.902;2022-10-16T09:37:30;0.83;;;0.70;;
7977;SDS011;4034;48.004;10.902;2022-10-16T09:39:56;0.80;;;0.80;;
7977;SDS011;4034;48.004;10.902;2022-10-16T09:52:12;1.07;;;0.90;;
7977;SDS011;4034;48.004;10.902;2022-10-16T09:54:48;0.70;;;0.70;;
7977;SDS011;4034;48.004;10.902;2022-10-16T09:57:14;0.90;;;0.90;;
7977;SDS011;4034;48.004;10.902;2022-10-16T09:59:53;1.40;;;0.90;;
7977;SDS011;4034;48.004;10.902;2022-10-16T10:02:23;0.80;;;0.80;;
7977;SDS011;4034;48.004;10.902;2022-10-16T10:04:54;0.83;;;0.80;;
7977;SDS011;4034;48.004;10.902;2022-10-16T10:07:23;0.60;;;0.60;;
7977;SDS011;4034;48.004;10.902;2022-10-16T10:09:50;0.80;;;0.80;;
7977;SDS011;4034;48.004;10.902;2022-10-16T10:14:49;1.23;;;1.13;;
7977;SDS011;4034;48.004;10.902;2022-10-16T10:17:20;2.33;;;0.93;;
7977;SDS011;4034;48.004;10.902;2022-10-16T10:24:59;2.63;;;1.07;;
7977;SDS011;4034;48.004;10.902;2022-10-16T10:27:32;0.80;;;0.80;;
7977;SDS011;4034;48.004;10.902;2022-10-16T10:30:03;1.00;;;1.00;;
7977;SDS011;4034;48.004;10.902;2022-10-16T10:32:35;1.83;;;0.80;;
7977;SDS011;4034;48.004;10.902;2022-10-16T10:40:28;2.00;;;1.07;;
7977;SDS011;4034;48.004;10.902;2022-10-16T10:50:49;2.10;;;0.83;;
7977;SDS011;4034;48.004;10.902;2022-10-16T11:10:20;0.50;;;0.50;;
7977;SDS011;4034;48.004;10.902;2022-10-16T11:12:48;1.27;;;0.50;;
7977;SDS011;4034;48.004;10.902;2022-10-16T11:15:17;0.70;;;0.70;;
7977;SDS011;4034;48.004;10.902;2022-10-16T11:17:46;1.63;;;0.73;;
7977;SDS011;4034;48.004;10.902;2022-10-16T11:20:21;0.43;;;0.43;;
7977;SDS011;4034;48.004;10.902;2022-10-16T11:22:53;1.00;;;0.80;;
7977;SDS011;4034;48.004;10.902;2022-10-16T11:25:24;0.90;;;0.60;;
7977;SDS011;4034;48.004;10.902;2022-10-16T11:30:22;0.40;;;0.40;;
7977;SDS011;4034;48.004;10.902;2022-10-16T11:33:10;0.50;;;0.50;;
7977;SDS011;4034;48.004;10.902;2022-10-16T11:38:10;0.67;;;0.67;;
7977;SDS011;4034;48.004;10.902;2022-10-16T11:40:38;0.60;;;0.60;;
7977;SDS011;4034;48.004;10.902;2022-10-16T11:43:15;0.50;;;0.50;;
7977;SDS011;4034;48.004;10.902;2022-10-16T11:45:44;1.67;;;0.60;;
7977;SDS011;4034;48.004;10.902;2022-10-16T11:53:23;3.30;;;0.73;;
7977;SDS011;4034;48.004;10.902;2022-10-16T14:48:32;11.13;;;3.43;;
7977;SDS011;4034;48.004;10.902;2022-10-16T14:50:58;10.17;;;2.90;;
7977;SDS011;4034;48.004;10.902;2022-10-16T14:53:24;7.67;;;4.03;;
7977;SDS011;4034;48.004;10.902;2022-10-16T14:55:50;7.30;;;3.47;;
7977;SDS011;4034;48.004;10.902;2022-10-16T15:00:43;7.57;;;3.37;;
7977;SDS011;4034;48.004;10.902;2022-10-16T15:03:08;7.07;;;3.10;;
7977;SDS011;4034;48.004;10.902;2022-10-16T15:05:35;6.80;;;3.00;;
7977;SDS011;4034;48.004;10.902;2022-10-16T15:10:27;3.23;;;1.80;;
7977;SDS011;4034;48.004;10.902;2022-10-16T19:57:41;1.67;;;1.67;;
7977;SDS011;4034;48.004;10.902;2022-10-16T20:00:07;2.90;;;1.80;;
7977;SDS011;4034;48.004;10.902;2022-10-16T20:02:34;1.40;;;1.40;;
7977;SDS011;4034;48.004;10.902;2022-10-16T20:05:00;1.80;;;1.33;;
7977;SDS011;4034;48.004;10.902;2022-10-16T20:07:26;1.60;;;1.50;;
7977;SDS011;4034;48.004;10.902;2022-10-16T20:09:52;1.60;;;1.50;;
7977;SDS011;4034;48.004;10.902;2022-10-16T20:12:18;1.70;;;1.70;;
7977;SDS011;4034;48.004;10.902;2022-10-16T20:14:44;1.80;;;1.67;;
7977;SDS011;4034;48.004;10.902;2022-10-16T20:17:10;1.40;;;1.40;;
7977;SDS011;4034;48.004;10.902;2022-10-16T20:19:37;1.53;;;1.53;;
7977;SDS011;4034;48.004;10.902;2022-10-16T20:22:03;1.30;;;1.30;;
7977;SDS011;4034;48.004;10.902;2022-10-16T20:24:29;2.30;;;1.73;;
7977;SDS011;4034;48.004;10.902;2022-10-16T20:26:55;1.80;;;1.30;;
7977;SDS011;4034;48.004;10.902;2022-10-16T20:29:23;1.97;;;1.60;;
7977;SDS011;4034;48.004;10.902;2022-10-16T20:31:49;1.87;;;1.77;;
7977;SDS011;4034;48.004;10.902;2022-10-16T20:34:15;1.50;;;1.50;;
7977;SDS011;4034;48.004;10.902;2022-10-16T20:36:41;2.40;;;1.90;;
7977;SDS011;4034;48.004;10.902;2022-10-16T20:39:09;1.90;;;1.80;;
7977;SDS011;4034;48.004;10.902;2022-10-16T20:41:37;1.73;;;1.63;;
7977;SDS011;4034;48.004;10.902;2022-10-16T20:44:03;2.30;;;1.87;;
7977;SDS011;4034;48.004;10.902;2022-10-16T20:46:30;2.13;;;1.50;;
7977;SDS011;4034;48.004;10.902;2022-10-16T20:48:56;2.43;;;1.90;;
7977;SDS011;4034;48.004;10.902;2022-10-16T20:51:26;7.43;;;1.90;;
7977;SDS011;4034;48.004;10.902;2022-10-16T20:53:54;2.30;;;1.90;;
7977;SDS011;4034;48.004;10.902;2022-10-16T20:56:20;1.60;;;1.50;;
7977;SDS011;4034;48.004;10.902;2022-10-16T20:58:46;3.33;;;1.90;;
7977;SDS011;4034;48.004;10.902;2022-10-16T21:01:13;2.67;;;1.40;;
7977;SDS011;4034;48.004;10.902;2022-10-16T21:03:40;1.60;;;1.60;;
7977;SDS011;4034;48.004;10.902;2022-10-16T21:06:07;1.93;;;1.53;;
7977;SDS011;4034;48.004;10.902;2022-10-16T21:08:34;1.93;;;1.83;;
7977;SDS011;4034;48.004;10.902;2022-10-16T21:11:00;1.70;;;1.60;;
7977;SDS011;4034;48.004;10.902;2022-10-16T21:13:26;1.70;;;1.60;;
7977;SDS011;4034;48.004;10.902;2022-10-16T21:15:52;1.23;;;1.13;;
7977;SDS011;4034;48.004;10.902;2022-10-16T21:18:18;2.67;;;1.60;;
7977;SDS011;4034;48.004;10.902;2022-10-16T21:20:44;1.60;;;1.60;;
7977;SDS011;4034;48.004;10.902;2022-10-16T21:23:10;1.70;;;1.60;;
7977;SDS011;4034;48.004;10.902;2022-10-16T21:25:36;2.17;;;1.90;;
7977;SDS011;4034;48.004;10.902;2022-10-16T21:28:02;1.77;;;1.67;;
7977;SDS011;4034;48.004;10.902;2022-10-16T21:30:28;1.50;;;1.50;;
7977;SDS011;4034;48.004;10.902;2022-10-16T21:32:54;1.80;;;1.70;;
7977;SDS011;4034;48.004;10.902;2022-10-16T21:35:20;1.90;;;1.50;;
7977;SDS011;4034;48.004;10.902;2022-10-16T21:37:49;6.57;;;1.80;;
7977;SDS011;4034;48.004;10.902;2022-10-16T21:40:15;3.27;;;1.70;;
7977;SDS011;4034;48.004;10.902;2022-10-16T21:42:41;1.93;;;1.80;;
7977;SDS011;4034;48.004;10.902;2022-10-16T21:45:07;2.83;;;1.50;;
7977;SDS011;4034;48.004;10.902;2022-10-16T21:47:33;2.40;;;1.40;;
7977;SDS011;4034;48.004;10.902;2022-10-16T21:49:59;2.93;;;1.53;;
7977;SDS011;4034;48.004;10.902;2022-10-16T21:52:25;3.53;;;1.80;;
7977;SDS011;4034;48.004;10.902;2022-10-16T21:54:51;2.10;;;2.00;;
7977;SDS011;4034;48.004;10.902;2022-10-16T21:57:17;5.23;;;1.97;;
7977;SDS011;4034;48.004;10.902;2022-10-16T21:59:43;1.63;;;1.53;;
7977;SDS011;4034;48.004;10.902;2022-10-16T22:02:09;2.07;;;1.27;;
7977;SDS011;4034;48.004;10.902;2022-10-16T22:04:35;1.90;;;1.80;;
7977;SDS011;4034;48.004;10.902;2022-10-16T22:07:01;1.60;;;1.60;;
7977;SDS011;4034;48.004;10.902;2022-10-16T22:09:27;1.47;;;1.47;;
7977;SDS011;4034;48.004;10.902;2022-10-16T22:11:53;1.20;;;1.20;;
7977;SDS011;4034;48.004;10.902;2022-10-16T22:14:19;1.90;;;1.80;;
7977;SDS011;4034;48.004;10.902;2022-10-16T22:16:48;1.60;;;1.50;;
7977;SDS011;4034;48.004;10.902;2022-10-16T22:19:15;2.00;;;1.90;;
7977;SDS011;4034;48.004;10.902;2022-10-16T22:21:42;1.67;;;1.63;;
7977;SDS011;4034;48.004;10.902;2022-10-16T22:24:10;1.90;;;1.80;;
7977;SDS011;4034;48.004;10.902;2022-10-16T22:26:36;2.63;;;1.93;;
7977;SDS011;4034;48.004;10.902;2022-10-16T22:29:03;1.47;;;1.47;;
7977;SDS011;4034;48.004;10.902;2022-10-16T22:31:29;1.53;;;1.50;;
7977;SDS011;4034;48.004;10.902;2022-10-16T22:33:56;1.60;;;1.60;;
7977;SDS011;4034;48.004;10.902;2022-10-16T22:36:22;3.00;;;1.90;;
7977;SDS011;4034;48.004;10.902;2022-10-16T22:38:48;4.30;;;1.70;;
7977;SDS011;4034;48.004;10.902;2022-10-16T22:41:14;1.70;;;1.70;;
7977;SDS011;4034;48.004;10.902;2022-10-16T22:43:42;1.80;;;1.80;;
7977;SDS011;4034;48.004;10.902;2022-10-16T22:46:09;2.70;;;1.90;;
7977;SDS011;4034;48.004;10.902;2022-10-16T22:48:35;1.83;;;1.73;;
7977;SDS011;4034;48.004;10.902;2022-10-16T22:51:02;1.73;;;1.70;;
7977;SDS011;4034;48.004;10.902;2022-10-16T22:53:29;2.00;;;1.90;;
7977;SDS011;4034;48.004;10.902;2022-10-16T22:55:55;1.57;;;1.57;;
7977;SDS011;4034;48.004;10.902;2022-10-16T22:58:21;3.00;;;1.90;;
7977;SDS011;4034;48.004;10.902;2022-10-16T23:00:47;3.90;;;1.90;;
7977;SDS011;4034;48.004;10.902;2022-10-16T23:03:13;2.30;;;1.97;;
7977;SDS011;4034;48.004;10.902;2022-10-16T23:05:40;4.07;;;1.70;;
7977;SDS011;4034;48.004;10.902;2022-10-16T23:08:06;2.33;;;2.23;;
7977;SDS011;4034;48.004;10.902;2022-10-16T23:10:33;2.60;;;2.40;;
7977;SDS011;4034;48.004;10.902;2022-10-16T23:12:59;3.80;;;2.07;;
7977;SDS011;4034;48.004;10.902;2022-10-16T23:15:25;3.00;;;2.10;;
7977;SDS011;4034;48.004;10.902;2022-10-16T23:17:51;2.30;;;2.10;;
7977;SDS011;4034;48.004;10.902;2022-10-16T23:20:17;2.60;;;2.17;;
7977;SDS011;4034;48.004;10.902;2022-10-16T23:22:43;2.80;;;2.50;;
7977;SDS011;4034;48.004;10.902;2022-10-16T23:25:09;2.10;;;2.00;;
7977;SDS011;4034;48.004;10.902;2022-10-16T23:27:35;1.53;;;1.53;;
7977;SDS011;4034;48.004;10.902;2022-10-16T23:30:01;2.30;;;1.97;;
7977;SDS011;4034;48.004;10.902;2022-10-16T23:32:27;3.30;;;2.20;;
7977;SDS011;4034;48.004;10.902;2022-10-16T23:34:53;3.80;;;2.10;;
7977;SDS011;4034;48.004;10.902;2022-10-16T23:37:18;7.23;;;2.27;;
7977;SDS011;4034;48.004;10.902;2022-10-16T23:39:44;2.47;;;2.30;;
7977;SDS011;4034;48.004;10.902;2022-10-16T23:42:10;3.70;;;2.27;;
7977;SDS011;4034;48.004;10.902;2022-10-16T23:44:36;2.13;;;2.03;;
7977;SDS011;4034;48.004;10.902;2022-10-16T23:47:02;4.03;;;2.57;;
7977;SDS011;4034;48.004;10.902;2022-10-16T23:49:28;2.50;;;2.23;;
7977;SDS011;4034;48.004;10.902;2022-10-16T23:51:54;2.07;;;1.97;;
7977;SDS011;4034;48.004;10.902;2022-10-16T23:54:20;4.40;;;2.37;;
7977;SDS011;4034;48.004;10.902;2022-10-16T23:56:46;2.33;;;2.13;;
7977;SDS011;4034;48.004;10.902;2022-10-16T23:59:12;3.70;;;2.30;;
